Time;durP1;ratioP1;P1;durP2;ratioP2;P2;SDS_P1;SDS_P2;PMS_P1;PMS_P2;Temp;Humidity;BMP_temperature;BMP_pressure;BME280_temperature;BME280_humidity;BME280_pressure;Samples;Min_cycle;Max_cycle;Signal;HPM_P1;HPM_P2
2020/12/14 00:02:12;;;;;;;26.02;10.82;;;;;;;6.15;88.13;101204.68;1772591;81;21705;-72
2020/12/14 00:04:45;;;;;;;20.82;9.68;;;;;;;6.15;88.08;101203.83;1775622;81;21182;-71
2020/12/14 00:07:19;;;;;;;25.95;11.53;;;;;;;6.17;88.07;101209.98;1775508;81;21189;-72
2020/12/14 00:09:51;;;;;;;31.25;12.53;;;;;;;6.17;88.08;101209.44;1791486;80;21318;-72
2020/12/14 00:12:24;;;;;;;19.45;9.83;;;;;;;6.21;88.19;101219.48;1775480;81;21234;-73
2020/12/14 00:14:57;;;;;;;23.85;9.50;;;;;;;6.27;88.18;101229.12;1775555;81;21317;-74
2020/12/14 00:17:29;;;;;;;21.65;9.90;;;;;;;6.28;87.92;101223.91;1775642;81;21329;-73
2020/12/14 00:20:02;;;;;;;26.93;10.43;;;;;;;6.29;87.84;101226.15;1775639;81;21226;-73
2020/12/14 00:22:35;;;;;;;25.20;11.27;;;;;;;6.30;87.74;101220.94;1791596;80;21841;-73
2020/12/14 00:25:08;;;;;;;29.67;12.13;;;;;;;6.30;87.72;101222.32;1775535;81;21229;-71
2020/12/14 00:27:40;;;;;;;24.65;10.90;;;;;;;6.32;87.71;101227.93;1775317;81;21261;-74
2020/12/14 00:30:13;;;;;;;20.10;10.03;;;;;;;6.32;87.54;101215.52;1807234;79;21835;-73
2020/12/14 00:32:46;;;;;;;31.82;13.32;;;;;;;6.32;87.48;101227.93;1775639;81;21190;-72
2020/12/14 00:35:19;;;;;;;25.00;12.53;;;;;;;6.28;87.38;101223.09;1775373;81;21238;-73
2020/12/14 00:37:51;;;;;;;26.37;12.45;;;;;;;6.32;87.58;101220.18;1775663;81;21356;-73
2020/12/14 00:40:24;;;;;;;29.87;14.05;;;;;;;6.36;87.45;101227.78;1775712;81;21799;-74
2020/12/14 00:42:57;;;;;;;27.07;12.13;;;;;;;6.37;87.38;101228.64;1775647;81;21324;-73
2020/12/14 00:45:30;;;;;;;29.77;13.88;;;;;;;6.41;87.38;101233.48;1775879;81;21328;-73
2020/12/14 00:48:02;;;;;;;29.45;13.75;;;;;;;6.44;87.28;101229.45;1775922;81;21863;-74
2020/12/14 00:50:35;;;;;;;35.03;15.32;;;;;;;6.45;87.29;101233.89;1775665;81;21336;-71
2020/12/14 00:53:07;;;;;;;27.77;12.90;;;;;;;6.46;87.12;101221.78;1775525;81;21370;-74
2020/12/14 00:55:41;;;;;;;22.98;11.65;;;;;;;6.49;87.01;101221.36;1775410;81;21670;-73
2020/12/14 00:58:13;;;;;;;34.90;14.03;;;;;;;6.48;86.76;101218.30;1775515;81;21190;-73
2020/12/14 01:00:46;;;;;;;30.65;14.30;;;;;;;6.44;86.71;101225.31;1775478;81;21214;-73
2020/12/14 01:03:19;;;;;;;26.27;12.30;;;;;;;6.43;86.74;101225.86;1770450;81;21337;-73
2020/12/14 01:05:52;;;;;;;34.30;14.00;;;;;;;6.41;86.66;101221.63;1838677;78;21308;-72
2020/12/14 01:08:25;;;;;;;32.98;14.87;;;;;;;6.40;86.65;101224.08;1838551;78;21289;-72
2020/12/14 01:10:58;;;;;;;33.23;15.13;;;;;;;6.40;86.67;101224.08;1838444;78;21313;-73
2020/12/14 01:13:30;;;;;;;33.05;14.75;;;;;;;6.42;86.76;101221.94;1838640;78;21309;-73
2020/12/14 01:16:04;;;;;;;36.50;15.80;;;;;;;6.41;86.79;101220.25;1767479;81;21385;-72
2020/12/14 01:18:40;;;;;;;32.42;13.50;;;;;;;6.43;86.71;101213.97;1835334;78;21302;-73
2020/12/14 01:21:13;;;;;;;38.63;14.80;;;;;;;6.37;86.57;101214.34;1838520;78;21195;-73
2020/12/14 01:23:45;;;;;;;31.35;15.15;;;;;;;6.38;86.80;101216.02;1838491;78;21309;-72
2020/12/14 01:26:18;;;;;;;36.03;16.50;;;;;;;6.43;86.82;101211.22;1767471;81;21340;-73
2020/12/14 01:28:50;;;;;;;29.60;14.10;;;;;;;6.45;86.70;101211.83;1838423;78;21305;-73
2020/12/14 01:31:23;;;;;;;32.85;14.38;;;;;;;6.46;86.56;101213.52;1838353;78;21353;-73
2020/12/14 01:33:56;;;;;;;29.98;14.38;;;;;;;6.48;86.54;101215.55;1838208;78;21301;-73
2020/12/14 01:36:29;;;;;;;28.10;13.98;;;;;;;6.52;86.58;101217.63;1838536;78;21167;-72
2020/12/14 01:39:01;;;;;;;35.90;15.98;;;;;;;6.57;86.53;101223.85;1838343;78;21379;-72
2020/12/14 01:41:34;;;;;;;35.28;16.52;;;;;;;6.58;86.28;101232.44;1838537;78;21662;-73
2020/12/14 01:44:07;;;;;;;36.10;17.12;;;;;;;6.56;86.13;101226.30;1838423;78;21183;-73
2020/12/14 01:46:43;;;;;;;44.63;17.67;;;;;;;6.55;86.09;101236.51;1767480;81;21305;-73
2020/12/14 01:49:16;;;;;;;39.63;17.60;;;;;;;6.59;86.23;101234.16;1838455;78;21178;-73
2020/12/14 01:51:48;;;;;;;37.93;16.12;;;;;;;6.64;86.04;101235.69;1838346;78;21801;-72
2020/12/14 01:54:28;;;;;;;34.45;16.32;;;;;;;6.59;85.64;101230.02;1822104;78;21235;-75
2020/12/14 01:57:01;;;;;;;38.95;16.35;;;;;;;6.47;85.57;101235.92;1805368;79;21334;-74
2020/12/14 01:59:34;;;;;;;38.75;15.90;;;;;;;6.34;85.78;101235.44;1805882;79;21295;-72
2020/12/14 02:02:07;;;;;;;42.98;20.12;;;;;;;6.27;86.12;101233.25;1805558;79;21895;-73
2020/12/14 02:04:40;;;;;;;37.63;17.62;;;;;;;6.25;86.26;101246.42;1805640;79;21791;-74
2020/12/14 02:07:12;;;;;;;44.17;18.13;;;;;;;6.20;86.40;101240.71;1805910;79;21203;-73
2020/12/14 02:09:45;;;;;;;48.52;18.77;;;;;;;6.22;86.55;101250.15;1805706;79;21187;-73
2020/12/14 02:12:18;;;;;;;46.95;20.50;;;;;;;6.20;86.58;101246.23;1805820;79;21227;-73
2020/12/14 02:14:55;;;;;;;47.83;18.73;;;;;;;6.22;86.66;101254.28;1805444;79;21337;-73
2020/12/14 02:17:28;;;;;;;38.20;19.05;;;;;;;6.21;86.72;101257.56;1805396;79;21790;-74
2020/12/14 02:20:01;;;;;;;42.10;16.50;;;;;;;6.17;86.67;101257.67;1805566;79;21321;-73
2020/12/14 02:22:33;;;;;;;44.45;18.50;;;;;;;6.15;86.71;101264.47;1805483;78;21495;-74
2020/12/14 02:25:07;;;;;;;55.75;19.75;;;;;;;6.13;86.84;101259.71;1805421;79;21313;-73
2020/12/14 02:27:41;;;;;;;47.15;19.60;;;;;;;6.07;86.77;101260.06;1805638;79;21364;-74
2020/12/14 02:30:15;;;;;;;38.08;16.42;;;;;;;6.00;86.92;101258.38;1784070;79;21312;-74
2020/12/14 02:32:47;;;;;;;53.45;18.62;;;;;;;5.96;87.09;101266.24;1805685;79;21162;-74
2020/12/14 02:35:21;;;;;;;44.77;19.23;;;;;;;5.97;87.20;101276.71;1805591;79;21321;-74
2020/12/14 02:37:53;;;;;;;59.83;22.00;;;;;;;5.92;87.34;101277.37;1805742;79;21155;-74
2020/12/14 02:40:26;;;;;;;51.20;19.42;;;;;;;5.88;87.47;101277.50;1805338;79;21233;-72
2020/12/14 02:42:59;;;;;;;51.28;18.75;;;;;;;5.87;87.56;101285.98;1805661;79;21167;-73
2020/12/14 02:45:31;;;;;;;53.50;20.10;;;;;;;5.81;87.75;101282.16;1805749;79;21309;-73
2020/12/14 02:48:04;;;;;;;45.45;19.75;;;;;;;5.76;87.93;101285.22;1805553;79;21667;-73
2020/12/14 02:50:37;;;;;;;51.42;20.10;;;;;;;5.76;88.15;101284.70;1805599;79;21736;-73
2020/12/14 02:53:09;;;;;;;45.20;18.40;;;;;;;5.77;88.22;101285.53;1805598;79;21229;-73
2020/12/14 02:55:42;;;;;;;48.95;19.48;;;;;;;5.75;88.33;101284.36;1805594;79;21183;-74
2020/12/14 02:58:15;;;;;;;52.87;20.43;;;;;;;5.74;88.43;101281.30;1805688;79;21328;-74
2020/12/14 03:00:47;;;;;;;48.15;20.72;;;;;;;5.76;88.53;101285.22;1805530;79;21230;-73
2020/12/14 03:03:21;;;;;;;44.30;20.00;;;;;;;5.78;88.59;101283.09;1805517;79;21234;-74
2020/12/14 03:05:53;;;;;;;63.85;22.80;;;;;;;5.80;88.57;101287.35;1805268;79;21337;-73
2020/12/14 03:08:26;;;;;;;60.43;22.65;;;;;;;5.80;88.46;101288.73;1805874;79;21690;-74
2020/12/14 03:10:59;;;;;;;63.52;23.92;;;;;;;5.82;88.47;101294.03;1805923;79;21803;-73
2020/12/14 03:13:31;;;;;;;64.50;22.98;;;;;;;5.78;88.33;101290.83;1805608;79;21159;-73
2020/12/14 03:16:04;;;;;;;67.67;24.12;;;;;;;5.74;88.42;101298.37;1805770;79;21796;-75
2020/12/14 03:18:36;;;;;;;71.80;25.12;;;;;;;5.73;88.61;101297.51;1805863;79;21194;-74
2020/12/14 03:21:09;;;;;;;74.53;24.83;;;;;;;5.74;88.63;101300.58;1805833;79;21686;-74
2020/12/14 03:23:42;;;;;;;65.45;22.62;;;;;;;5.72;88.66;101294.96;1805774;79;21839;-75
2020/12/14 03:26:18;;;;;;;61.75;23.27;;;;;;;5.72;88.78;101293.59;1805405;79;21218;-74
2020/12/14 03:28:50;;;;;;;76.10;26.25;;;;;;;5.74;88.81;101296.99;1805729;79;21224;-73
2020/12/14 03:31:23;;;;;;;75.75;26.93;;;;;;;5.76;88.87;101302.61;1805619;79;21151;-74
2020/12/14 03:33:57;;;;;;;71.80;24.35;;;;;;;5.79;88.82;101299.92;1805932;78;21329;-72
2020/12/14 03:36:30;;;;;;;65.30;25.37;;;;;;;5.81;88.75;101295.93;1805943;79;21661;-73
2020/12/14 03:39:02;;;;;;;72.33;26.70;;;;;;;5.82;88.58;101298.17;1805718;79;21167;-74
2020/12/14 03:41:35;;;;;;;75.83;25.85;;;;;;;5.80;88.56;101303.05;1805760;79;21812;-73
2020/12/14 03:44:08;;;;;;;68.17;23.52;;;;;;;5.76;88.66;101299.86;1805406;79;21354;-73
2020/12/14 03:46:40;;;;;;;67.42;25.52;;;;;;;5.76;88.73;101302.61;1805454;79;21167;-75
2020/12/14 03:49:13;;;;;;;71.47;24.60;;;;;;;5.76;88.80;101315.00;1805424;79;21344;-74
2020/12/14 03:51:46;;;;;;;81.05;27.80;;;;;;;5.78;88.84;101306.50;1805526;79;21785;-73
2020/12/14 03:54:21;;;;;;;66.40;24.35;;;;;;;5.82;88.88;101305.05;1805768;79;21820;-73
2020/12/14 03:56:59;;;;;;;64.97;24.52;;;;;;;5.84;88.81;101305.16;1805677;79;21159;-72
2020/12/14 03:59:31;;;;;;;65.55;24.80;;;;;;;5.83;88.68;101313.62;1805667;79;21175;-74
2020/12/14 04:02:04;;;;;;;64.87;24.60;;;;;;;5.82;88.72;101309.19;1805779;79;21309;-74
2020/12/14 04:04:37;;;;;;;57.75;23.55;;;;;;;5.82;88.58;101308.67;1805328;79;21384;-72
2020/12/14 04:07:09;;;;;;;50.43;20.52;;;;;;;5.80;88.54;101309.94;1805262;79;21353;-74
2020/12/14 04:09:43;;;;;;;56.92;23.73;;;;;;;5.81;88.54;101317.14;1805648;78;21271;-74
2020/12/14 04:12:16;;;;;;;63.60;22.57;;;;;;;5.81;88.50;101312.45;1805758;79;21655;-74
2020/12/14 04:14:49;;;;;;;56.37;21.40;;;;;;;5.82;88.51;101312.80;1805482;79;21203;-73
2020/12/14 04:17:22;;;;;;;44.93;20.30;;;;;;;5.79;88.33;101309.56;1805827;79;21202;-73
2020/12/14 04:19:55;;;;;;;;;;;;;;;5.76;88.36;101316.38;1808201;78;21309;-73
2020/12/14 04:22:27;;;;;;;56.85;22.27;;;;;;;5.78;88.51;101314.77;1805621;79;20187;-73
2020/12/14 04:25:00;;;;;;;67.70;23.05;;;;;;;5.78;88.55;101318.89;1805458;79;21771;-73
2020/12/14 04:27:32;;;;;;;66.55;23.60;;;;;;;5.78;88.57;101317.52;1805545;78;21175;-73
2020/12/14 04:30:05;;;;;;;63.83;24.17;;;;;;;5.78;88.57;101325.27;1805791;78;21321;-74
2020/12/14 04:32:38;;;;;;;64.80;23.43;;;;;;;5.80;88.50;101326.47;1805716;79;21832;-74
2020/12/14 04:35:11;;;;;;;53.00;22.45;;;;;;;5.80;88.53;101323.72;1805779;79;21191;-74
2020/12/14 04:37:44;;;;;;;58.75;23.47;;;;;;;5.78;88.54;101325.78;1805657;78;21188;-74
2020/12/14 04:40:17;;;;;;;53.10;20.70;;;;;;;5.75;88.61;101326.23;1805614;79;21274;-74
2020/12/14 04:42:51;;;;;;;63.25;23.45;;;;;;;5.73;88.67;101325.05;1805555;79;21270;-74
2020/12/14 04:45:27;;;;;;;65.97;25.23;;;;;;;5.71;88.70;101324.44;1805753;79;21190;-75
2020/12/14 04:48:00;;;;;;;61.92;24.27;;;;;;;5.71;88.80;101324.44;1795233;79;21888;-72
2020/12/14 04:50:33;;;;;;;76.93;25.43;;;;;;;5.69;88.84;101325.70;1805816;79;21356;-73
2020/12/14 04:53:06;;;;;;;71.20;23.93;;;;;;;5.69;88.93;101332.59;1805755;79;21850;-72
2020/12/14 04:55:38;;;;;;;63.63;25.97;;;;;;;5.68;89.00;101329.52;1805395;79;21317;-73
2020/12/14 04:58:11;;;;;;;71.02;27.50;;;;;;;5.68;89.07;101340.54;1805579;79;21657;-72
2020/12/14 05:00:43;;;;;;;65.22;24.92;;;;;;;5.70;89.12;101343.92;1805857;79;21730;-73
2020/12/14 05:03:16;;;;;;;71.45;25.95;;;;;;;5.72;89.09;101339.89;1805619;79;21170;-72
2020/12/14 05:05:57;;;;;;;70.08;24.60;;;;;;;5.73;89.04;101356.73;1805391;79;21337;-72
2020/12/14 05:08:30;;;;;;;76.82;29.07;;;;;;;5.74;89.02;101358.97;1807154;78;21258;-73
2020/12/14 05:11:04;;;;;;;70.10;26.80;;;;;;;5.71;89.03;101360.24;1819869;77;21312;-73
2020/12/14 05:13:38;;;;;;;72.25;26.25;;;;;;;5.70;89.03;101359.06;1819690;79;21340;-73
2020/12/14 05:16:10;;;;;;;79.35;29.18;;;;;;;5.68;89.08;101369.46;1820036;79;21178;-73
2020/12/14 05:18:43;;;;;;;89.17;30.40;;;;;;;5.67;89.25;101371.35;1819979;79;21662;-73
2020/12/14 05:21:16;;;;;;;74.53;27.00;;;;;;;5.66;89.25;101375.17;1819892;79;21178;-73
2020/12/14 05:23:50;;;;;;;80.50;27.17;;;;;;;5.61;89.21;101377.71;1820026;79;21800;-74
2020/12/14 05:26:27;;;;;;;82.70;28.98;;;;;;;5.59;89.40;101374.84;1810969;79;21183;-73
2020/12/14 05:29:00;;;;;;;91.60;31.40;;;;;;;5.58;89.48;101373.16;1818007;79;21304;-75
2020/12/14 05:31:33;;;;;;;78.00;27.58;;;;;;;5.59;89.59;101381.21;1819918;79;21411;-74
2020/12/14 05:34:12;;;;;;;76.03;28.43;;;;;;;5.61;89.62;101390.65;1820001;79;21359;-75
2020/12/14 05:36:57;;;;;;;93.10;29.70;;;;;;;5.59;89.50;101391.37;1819699;77;21306;-74
2020/12/14 05:39:32;;;;;;;80.70;29.20;;;;;;;5.59;89.65;101388.09;1818989;79;21301;-71
2020/12/14 05:42:17;;;;;;;70.50;28.17;;;;;;;5.59;89.70;101382.59;1820180;79;21313;-75
2020/12/14 05:44:50;;;;;;;70.45;26.10;;;;;;;5.59;89.70;101381.73;1819960;77;21210;-73
2020/12/14 05:47:29;;;;;;;73.72;28.85;;;;;;;5.61;89.77;101383.22;1819990;79;21404;-75
2020/12/14 05:50:02;;;;;;;78.97;29.70;;;;;;;5.60;89.71;101387.55;1819977;79;21329;-76
2020/12/14 05:52:36;;;;;;;70.28;27.42;;;;;;;5.60;89.75;101393.06;1819986;79;21309;-74
2020/12/14 05:55:09;;;;;;;73.40;27.10;;;;;;;5.55;89.66;101387.36;1820157;79;21355;-74
2020/12/14 05:57:42;;;;;;;74.67;29.87;;;;;;;5.53;89.67;101386.70;1820095;79;21329;-75
2020/12/14 06:00:14;;;;;;;80.05;29.77;;;;;;;5.48;89.80;101390.09;1819695;77;21387;-76
2020/12/14 06:02:49;;;;;;;69.05;27.90;;;;;;;5.48;89.92;101394.74;1820274;77;21689;-76
2020/12/14 06:05:22;;;;;;;74.82;27.87;;;;;;;5.50;89.99;101399.53;1819708;79;21191;-74
2020/12/14 06:08:01;;;;;;;86.85;31.15;;;;;;;5.51;89.97;101408.11;1820085;79;21312;-75
2020/12/14 06:10:34;;;;;;;77.22;31.10;;;;;;;5.55;90.00;101408.84;1819734;77;21233;-74
2020/12/14 06:13:08;;;;;;;70.17;27.35;;;;;;;5.57;89.94;101419.11;1819881;79;21162;-73
2020/12/14 06:15:41;;;;;;;80.32;27.20;;;;;;;5.62;89.91;101419.88;1819926;79;21304;-73
2020/12/14 06:18:14;;;;;;;70.45;28.60;;;;;;;5.60;89.44;101426.11;1819699;79;21313;-72
2020/12/14 06:20:47;;;;;;;86.15;32.33;;;;;;;5.55;89.48;101432.80;1820068;79;21293;-74
2020/12/14 06:23:20;;;;;;;76.12;31.42;;;;;;;5.53;89.70;101437.64;1819816;79;21367;-74
2020/12/14 06:25:53;;;;;;;65.65;27.50;;;;;;;5.56;89.64;101438.62;1819815;79;21344;-73
2020/12/14 06:28:33;;;;;;;72.42;28.62;;;;;;;5.56;89.61;101432.56;1819641;79;21308;-74
2020/12/14 06:31:06;;;;;;;91.22;31.77;;;;;;;5.58;89.59;101435.12;1819605;79;21368;-73
2020/12/14 06:33:44;;;;;;;77.75;31.60;;;;;;;5.61;89.65;101439.67;1819870;79;21296;-74
2020/12/14 06:36:21;;;;;;;84.95;30.12;;;;;;;5.64;89.60;101438.41;1819823;79;21225;-73
2020/12/14 06:38:54;;;;;;;76.50;30.77;;;;;;;5.69;89.52;101448.27;1819872;79;21217;-73
2020/12/14 06:41:27;;;;;;;93.78;33.60;;;;;;;5.76;89.54;101450.50;1820029;79;21772;-73
2020/12/14 06:44:10;;;;;;;76.30;29.52;;;;;;;5.82;89.34;101448.31;1787382;79;21743;-74
2020/12/14 06:46:43;;;;;;;79.77;29.65;;;;;;;5.78;88.92;101446.99;1819782;79;21328;-74
2020/12/14 06:49:19;;;;;;;71.47;26.50;;;;;;;5.72;88.69;101449.21;1820021;79;21395;-75
2020/12/14 06:51:52;;;;;;;77.00;29.18;;;;;;;5.70;88.78;101448.07;1766804;79;21367;-75
2020/12/14 06:54:43;;;;;;;68.12;26.57;;;;;;;5.65;88.69;101442.85;1819597;79;21312;-76
2020/12/14 06:57:22;;;;;;;74.55;28.60;;;;;;;5.59;88.82;101451.95;1819697;79;21445;-72
2020/12/14 06:59:52;;;;;;;80.47;29.52;;;;;;;5.58;88.94;101457.15;1819684;79;21308;-74
2020/12/14 07:02:40;;;;;;;74.10;31.65;;;;;;;5.58;88.98;101458.53;1820187;79;21387;-73
2020/12/14 07:05:34;;;;;;;80.95;29.85;;;;;;;5.56;89.06;101460.66;1819300;79;21320;-74
2020/12/14 07:08:06;;;;;;;81.08;30.35;;;;;;;5.58;89.16;101459.39;1819596;79;21858;-76
2020/12/14 07:10:39;;;;;;;70.17;27.60;;;;;;;5.61;89.27;101460.33;1818769;79;21350;-73
2020/12/14 07:13:13;;;;;;;69.32;26.40;;;;;;;5.65;89.31;101456.63;1805645;79;21308;-73
2020/12/14 07:15:45;;;;;;;76.53;29.32;;;;;;;5.65;88.95;101458.00;1805623;79;21270;-74
2020/12/14 07:18:19;;;;;;;87.15;29.37;;;;;;;5.62;88.90;101462.56;1805727;79;21234;-74
2020/12/14 07:20:58;;;;;;;75.92;28.85;;;;;;;5.58;88.91;101461.28;1783987;79;21325;-75
2020/12/14 07:23:30;;;;;;;92.92;33.75;;;;;;;5.59;89.01;101469.86;1805373;79;21792;-73
2020/12/14 07:26:03;;;;;;;83.80;33.55;;;;;;;5.63;89.21;101472.52;1784097;79;21792;-74
2020/12/14 07:28:48;;;;;;;76.35;31.33;;;;;;;5.63;89.00;101474.73;1805489;79;21337;-73
2020/12/14 07:31:24;;;;;;;89.47;33.55;;;;;;;5.61;88.76;101467.77;1805601;79;21324;-73
2020/12/14 07:33:58;;;;;;;86.60;34.75;;;;;;;5.54;88.70;101480.13;1805448;79;21785;-73
2020/12/14 07:36:33;;;;;;;98.20;35.60;;;;;;;5.53;88.88;101474.82;1805473;79;21379;-75
2020/12/14 07:39:06;;;;;;;81.15;34.88;;;;;;;5.54;89.12;101475.14;1805408;79;21388;-75
2020/12/14 07:41:42;;;;;;;83.30;33.50;;;;;;;5.53;89.13;101477.06;1758644;79;21308;-74
2020/12/14 07:44:15;;;;;;;91.47;33.60;;;;;;;5.53;89.22;101478.95;1780891;79;21178;-76
2020/12/14 07:46:47;;;;;;;91.00;34.87;;;;;;;5.57;89.37;101484.37;1805835;79;21154;-74
2020/12/14 07:49:23;;;;;;;82.22;29.65;;;;;;;5.61;89.22;101498.89;1805719;79;21186;-74
2020/12/14 07:51:57;;;;;;;75.85;28.90;;;;;;;5.65;89.20;101502.94;1805587;79;21408;-74
2020/12/14 07:54:29;;;;;;;72.37;28.05;;;;;;;5.70;88.96;101508.67;1805896;79;21356;-74
2020/12/14 07:57:06;;;;;;;88.95;32.15;;;;;;;5.73;88.70;101516.50;1805464;79;21816;-72
2020/12/14 07:59:39;;;;;;;100.87;32.88;;;;;;;5.74;88.62;101509.92;1805555;79;21181;-74
2020/12/14 08:02:11;;;;;;;92.92;32.28;;;;;;;5.76;88.59;101509.21;1805388;79;21313;-73
2020/12/14 08:04:44;;;;;;;75.43;28.13;;;;;;;5.80;88.48;101516.56;1805750;79;21186;-74
2020/12/14 08:07:18;;;;;;;86.70;32.23;;;;;;;5.85;88.48;101512.63;1805714;79;22275;-75
2020/12/14 08:09:50;;;;;;;;;;;;;;;5.91;88.40;101507.13;1808010;79;21340;-73
2020/12/14 08:12:22;;;;;;;79.32;31.05;;;;;;;5.95;87.95;101508.94;1805424;79;20177;-74
2020/12/14 08:14:56;;;;;;;77.90;32.85;;;;;;;5.94;87.76;101512.75;1805658;79;21233;-75
2020/12/14 08:17:29;;;;;;;85.12;34.92;;;;;;;5.98;87.79;101501.64;1805551;79;21339;-74
2020/12/14 08:20:02;;;;;;;93.60;35.65;;;;;;;6.01;87.47;101502.58;1805386;79;21314;-73
2020/12/14 08:22:35;;;;;;;100.37;37.80;;;;;;;6.02;87.23;101505.65;1805697;79;21312;-74
2020/12/14 08:25:07;;;;;;;;;;;;;;;6.03;87.33;101518.36;1808345;79;21706;-73
2020/12/14 08:27:50;;;;;;;90.30;35.98;;;;;;;6.05;87.25;101518.47;1805365;79;20253;-75
2020/12/14 08:30:25;;;;;;;141.18;44.75;;;;;;;6.05;87.17;101508.00;1805519;79;21360;-74
2020/12/14 08:33:16;;;;;;;100.50;35.03;;;;;;;6.06;87.18;101509.17;1805599;79;21190;-73
2020/12/14 08:35:53;;;;;;;118.87;39.13;;;;;;;6.10;87.26;101511.80;1805517;79;21171;-73
2020/12/14 08:38:27;;;;;;;125.42;42.70;;;;;;;6.11;86.88;101515.42;1805344;79;21211;-74
2020/12/14 08:41:06;;;;;;;109.10;38.00;;;;;;;6.11;86.46;101509.91;1805358;79;21772;-74
2020/12/14 08:43:38;;;;;;;104.40;35.52;;;;;;;6.06;86.25;101501.42;1805383;79;21272;-75
2020/12/14 08:46:15;;;;;;;75.45;30.52;;;;;;;6.05;86.42;101510.20;1805207;79;21162;-76
2020/12/14 08:48:53;;;;;;;89.62;37.20;;;;;;;6.06;86.47;101509.69;1806616;78;28923;-75
2020/12/14 08:51:31;;;;;;;93.62;38.60;;;;;;;6.05;86.16;101505.24;1814076;78;21177;-75
2020/12/14 08:54:18;;;;;;;105.60;43.38;;;;;;;6.01;86.01;101502.06;1814136;79;21185;-76
2020/12/14 08:56:51;;;;;;;94.52;35.25;;;;;;;5.98;86.06;101493.38;1814177;78;21371;-75
2020/12/14 08:59:25;;;;;;;78.65;30.08;;;;;;;5.89;86.05;101493.24;1814439;79;21315;-74
2020/12/14 09:02:08;;;;;;;77.42;32.78;;;;;;;5.82;86.25;101488.26;1814095;79;21369;-74
2020/12/14 09:04:39;;;;;;;100.50;38.83;;;;;;;5.79;86.63;101491.38;1788536;78;21346;-76
2020/12/14 09:07:22;;;;;;;85.85;33.20;;;;;;;5.74;86.75;101483.75;1812076;78;21803;-77
2020/12/14 09:09:55;;;;;;;84.72;33.02;;;;;;;5.73;86.81;101486.20;1830119;78;21350;-76
2020/12/14 09:12:29;;;;;;;81.45;34.85;;;;;;;5.71;86.75;101496.59;1831247;78;21340;-76
2020/12/14 09:15:07;;;;;;;93.58;37.15;;;;;;;5.70;86.75;101498.16;1831135;78;21423;-76
2020/12/14 09:17:42;;;;;;;91.08;33.83;;;;;;;5.66;86.84;101500.49;1831151;78;21339;-77
2020/12/14 09:20:16;;;;;;;77.25;30.92;;;;;;;5.67;86.89;101508.23;1830915;78;21323;-77
2020/12/14 09:22:49;;;;;;;89.73;33.63;;;;;;;5.69;86.88;101511.08;1793199;78;21304;-77
2020/12/14 09:25:22;;;;;;;88.00;33.20;;;;;;;5.73;86.91;101508.78;1808306;78;21216;-77
2020/12/14 09:27:54;;;;;;;90.85;31.65;;;;;;;5.75;86.81;101502.52;1817509;79;21324;-76
2020/12/14 09:30:28;;;;;;;81.28;28.47;;;;;;;5.79;86.83;101510.67;1817473;79;21237;-76
2020/12/14 09:33:00;;;;;;;;;;;;;;;5.78;86.62;101508.98;1822549;78;21221;-77
2020/12/14 09:35:33;;;;;;;99.62;29.65;;;;;;;5.80;86.62;101507.75;1786486;78;20179;-77
2020/12/14 09:38:08;;;;;;;64.75;27.40;;;;;;;5.78;86.50;101507.59;1785374;80;21730;-76
2020/12/14 09:44:32;;;;;;;74.22;27.60;;;;;;;5.70;86.65;101502.30;1764554;81;21211;-76
2020/12/14 09:47:23;;;;;;;73.95;28.15;;;;;;;5.68;86.90;101503.88;1771961;80;26888;-74
2020/12/14 09:49:57;;;;;;;86.40;29.42;;;;;;;5.68;86.97;101498.91;1733946;83;21462;-74
2020/12/14 09:52:30;;;;;;;68.13;27.57;;;;;;;5.69;87.04;101497.30;1726589;83;21177;-74
2020/12/14 09:55:03;;;;;;;80.75;30.43;;;;;;;5.75;87.01;101490.13;1732641;81;21232;-75
2020/12/14 09:57:36;;;;;;;87.05;28.73;;;;;;;5.80;87.02;101489.01;1733372;82;21835;-76
2020/12/14 10:00:12;;;;;;;75.67;26.12;;;;;;;5.81;86.68;101479.68;1696304;83;22605;-75
2020/12/14 10:02:46;;;;;;;79.60;27.77;;;;;;;5.76;86.55;101478.91;1678783;84;21241;-76
2020/12/14 10:05:20;;;;;;;70.55;27.93;;;;;;;5.76;86.71;101475.29;1728079;82;21387;-76
2020/12/14 10:07:53;;;;;;;79.50;26.83;;;;;;;5.78;86.90;101482.80;1737337;81;21419;-76
2020/12/14 10:10:25;;;;;;;75.67;26.35;;;;;;;5.84;86.83;101483.38;1746044;81;21400;-74
2020/12/14 10:13:01;;;;;;;74.30;27.60;;;;;;;5.84;86.51;101483.38;1725927;82;21227;-75
2020/12/14 10:15:33;;;;;;;74.97;28.95;;;;;;;5.83;86.34;101483.06;1692972;82;21211;-74
2020/12/14 10:18:06;;;;;;;95.20;32.00;;;;;;;5.83;86.58;101476.17;1694261;85;21302;-74
2020/12/14 10:20:41;;;;;;;93.22;31.75;;;;;;;5.89;86.74;101489.11;1694283;84;21395;-75
2020/12/14 10:23:14;;;;;;;79.87;27.98;;;;;;;5.93;86.50;101480.20;1650408;84;21413;-75
2020/12/14 10:25:47;;;;;;;77.25;29.37;;;;;;;5.98;86.50;101479.59;1726771;83;21417;-74
2020/12/14 10:28:19;;;;;;;83.40;30.70;;;;;;;6.03;86.02;101475.65;1726513;83;21719;-75
2020/12/14 10:30:52;;;;;;;83.17;31.57;;;;;;;6.05;85.87;101476.30;1726891;83;21409;-76
2020/12/14 10:33:29;;;;;;;93.62;30.88;;;;;;;6.05;85.73;101468.87;1726819;83;21232;-76
2020/12/14 10:36:10;;;;;;;77.82;29.10;;;;;;;6.03;85.60;101471.00;1726503;83;21351;-76
2020/12/14 10:38:43;;;;;;;80.62;29.77;;;;;;;6.02;85.60;101476.71;1726769;83;21394;-75
2020/12/14 10:41:19;;;;;;;87.60;28.02;;;;;;;6.00;85.65;101489.87;1727173;81;22579;-76
2020/12/14 10:43:54;;;;;;;75.45;26.65;;;;;;;5.98;85.53;101487.31;1733382;81;21231;-75
2020/12/14 10:46:26;;;;;;;69.12;27.73;;;;;;;5.97;85.55;101496.64;1726519;83;21330;-76
2020/12/14 10:48:59;;;;;;;75.80;26.95;;;;;;;5.98;85.50;101497.51;1729494;82;25727;-75
2020/12/14 10:51:32;;;;;;;97.67;41.42;;;;;;;5.99;85.30;101488.17;1741754;82;21739;-77
2020/12/14 10:54:05;;;;;;;72.25;25.68;;;;;;;6.00;85.25;101479.70;1742523;81;21685;-76
2020/12/14 10:56:38;;;;;;;70.75;26.50;;;;;;;6.03;85.03;101483.92;1726554;83;21235;-77
2020/12/14 10:59:11;;;;;;;71.60;27.57;;;;;;;6.00;84.94;101470.06;1726513;83;21335;-76
2020/12/14 11:01:56;;;;;;;83.12;27.48;;;;;;;6.01;85.13;101481.91;1726303;83;21826;-76
2020/12/14 11:04:29;;;;;;;;;;;;;;;6.00;85.06;101474.19;1726954;82;21890;-75
2020/12/14 11:07:01;;;;;;;72.25;27.13;;;;;;;6.00;85.04;101471.95;1726719;83;20596;-76
2020/12/14 11:09:36;;;;;;;72.20;25.27;;;;;;;5.99;85.18;101477.98;1726889;83;21332;-77
2020/12/14 11:12:09;;;;;;;77.45;26.93;;;;;;;6.00;84.82;101481.59;1726216;83;21213;-77
2020/12/14 11:17:17;;;;;;;73.57;26.85;;;;;;;5.96;85.07;101481.69;1673791;85;21353;-76
2020/12/14 11:19:50;;;;;;;69.33;27.90;;;;;;;5.94;85.12;101479.69;1677859;85;21310;-76
2020/12/14 11:22:23;;;;;;;85.57;29.48;;;;;;;5.93;85.19;101485.72;1728394;82;22077;-78
2020/12/14 11:24:56;;;;;;;75.25;28.07;;;;;;;5.88;85.21;101486.91;1740608;82;21244;-77
2020/12/14 11:27:28;;;;;;;72.95;26.52;;;;;;;5.88;85.29;101480.53;1740037;82;21822;-76
2020/12/14 11:30:01;;;;;;;80.55;30.72;;;;;;;5.88;85.13;101477.77;1739787;82;21354;-79
2020/12/14 11:32:34;;;;;;;87.83;32.57;;;;;;;5.90;85.31;101473.75;1744325;81;21724;-76
2020/12/14 11:35:06;;;;;;;86.35;30.85;;;;;;;5.94;85.29;101483.82;1766248;81;21317;-80
2020/12/14 11:37:39;;;;;;;97.20;29.97;;;;;;;5.90;85.19;101493.04;1740614;82;21633;-79
2020/12/14 11:40:14;;;;;;;;;;;;;;;5.89;85.35;101494.63;1743218;81;21354;-80
2020/12/14 11:42:47;;;;;;;93.27;31.25;;;;;;;5.95;85.43;101501.53;1740429;82;20265;-75
2020/12/14 11:45:19;;;;;;;96.72;34.27;;;;;;;5.94;85.19;101503.97;1739626;82;21326;-78
2020/12/14 11:47:52;;;;;;;86.70;28.90;;;;;;;5.92;85.25;101499.18;1739945;82;21415;-74
2020/12/14 11:50:26;;;;;;;82.72;28.42;;;;;;;5.91;85.26;101500.76;1739788;82;21693;-75
2020/12/14 11:52:59;;;;;;;85.70;30.57;;;;;;;5.89;85.17;101501.51;1739663;82;21837;-76
2020/12/14 11:55:32;;;;;;;;;;;;;;;5.87;85.24;101499.50;1744023;81;21202;-75
2020/12/14 11:58:05;;;;;;;93.15;32.05;;;;;;;5.85;85.36;101492.81;1734342;82;20309;-75